• Join FlightAware (Why Join?)
  • Login
  • US Flag 
01:12PM EDT


 

Airport Tracker/Info


-or-


 

Live Flight TrackerFlight Track Log ✈ SWA1719 ✈ 23-May-2013 ✈ KHOU - KTPA

Flight Track Log - Related Links

Times and Time Zones

All times are in EDT time to prevent confusion due to time zone crossing. See the SWA1719 flight status page for this flight to view local times or setup timezone preferences in your user account.

Time Position Orientation Groundspeed Altitude Reporting Facility
EDT Latitude Longitude Course Direction KTS MPH feet Rate Location/Type
11:56AM 29.6333 -95.2653 145° Southeast 148 170 700  Level Houston Center
11:57AM 29.5922 -95.2319 145° Southeast 198 228 2,700 1,860 Climbing Houston Center
11:58AM 29.5819 -95.2194 133° Southeast 186 214 3,500 2,340 Climbing Houston Center
11:58AM 29.5464 -95.1894 144° Southeast 217 250 5,100 2,280 Climbing Houston Center
11:59AM 29.5350 -95.1561 111° Southeast 249 287 5,900 2,820 Climbing Houston Center
12:00PM 29.5378 -95.0683 88° East 281 323 9,500 2,820 Climbing Houston Center
12:01PM 29.5631 -94.9792 72° East 299 344 11,800 2,460 Climbing Houston Center
12:02PM 29.5897 -94.8731 74° East 344 396 14,600 3,000 Climbing Houston Center
12:03PM 29.6233 -94.7358 74° East 372 428 18,000 2,820 Climbing Houston Center
12:04PM 29.6531 -94.6153 74° East 391 450 20,500 2,400 Climbing Houston Center
12:05PM 29.6842 -94.4894 74° East 407 468 23,000 2,220 Climbing Houston Center
12:06PM 29.7167 -94.3583 74° East 424 488 25,200 1,860 Climbing Houston Center
12:07PM 29.7075 -94.2131 94° East 459 528 26,900 1,740 Climbing Houston Center
12:08PM 29.6892 -94.0525 97° East 465 535 28,900 1,740 Climbing Houston Center
12:09PM 29.6858 -93.9008 91° East 477 549 30,500 1,380 Climbing Houston Center
12:10PM 29.6844 -93.7456 91° East 486 559 31,800 1,560 Climbing Houston Center
12:11PM 29.6814 -93.5564 91° East 494 568 33,800 1,740 Climbing Houston Center
12:12PM 29.6794 -93.3983 91° East 497 572 35,400 1,500 Climbing Houston Center
12:13PM 29.6781 -93.2431 91° East 492 566 37,000 1,320 Climbing Houston Center
12:14PM 29.6753 -93.0889 91° East 488 562 38,200 960 Climbing Houston Center
12:15PM 29.6722 -92.9033 91° East 488 562 39,000 360 Climbing Houston Center
12:16PM 29.6692 -92.7486 91° East 488 562 39,000  Level Houston Center
12:17PM 29.6672 -92.5947 91° East 485 558 39,000  Level Houston Center
12:18PM 29.6639 -92.4406 91° East 485 558 39,000  Level Houston Center
12:19PM 29.6456 -92.2850 98° East 490 564 39,000  Level Houston Center
12:21PM 29.6139 -92.1339 104° East 488 562 39,000  Level Houston Center
12:22PM 29.5758 -91.9525 104° East 489 563 39,000  Level Houston Center
12:23PM 29.5444 -91.8000 103° East 490 564 39,000  Level Houston Center
12:24PM 29.5125 -91.6475 103° East 490 564 39,000  Level Houston Center
12:25PM 29.4792 -91.4975 104° East 488 562 39,000  Level Houston Center
12:26PM 29.4489 -91.3486 103° East 486 559 39,000  Level Houston Center
12:27PM 29.4186 -91.2006 103° East 483 556 39,000  Level Houston Center
12:28PM 29.3803 -91.0219 104° East 482 555 39,000  Level Houston Center
12:29PM 29.3469 -90.8733 104° East 482 555 39,000  Level Houston Center
12:30PM 29.3114 -90.7203 105° East 485 558 39,000  Level Houston Center
12:31PM 29.2808 -90.5742 103° East 483 556 39,000  Level Houston Center
12:32PM 29.2467 -90.4253 105° East 485 558 39,000  Level Houston Center
12:33PM 29.2069 -90.2467 104° East 485 558 39,000  Level Houston Center
12:34PM 29.1733 -90.0994 105° East 482 555 39,000  Level Houston Center
12:35PM 29.1431 -89.9483 103° East 487 560 39,000  Level Houston Center
12:36PM 29.1133 -89.7989 103° East 487 560 39,000  Level Houston Center
12:37PM 29.0822 -89.6497 103° East 485 558 39,000  Level Houston Center
12:38PM 29.0447 -89.4669 103° East 493 567 39,000  Level Houston Center
12:39PM 29.0142 -89.3189 103° East 485 558 39,000  Level Houston Center
12:40PM 28.9831 -89.1692 103° East 486 559 39,000  Level Houston Center
12:41PM 28.9511 -89.0197 104° East 486 559 39,000  Level Houston Center
12:42PM 28.9203 -88.8703 103° East 485 558 39,000  Level Houston Center
12:43PM 28.8822 -88.6911 104° East 486 559 39,000  Level Houston Center
12:44PM 28.8419 -88.5442 107° East 486 559 39,000  Level Houston Center
12:45PM 28.8006 -88.3975 108° East 488 562 39,000  Level Houston Center
12:46PM 28.7567 -88.2533 109° East 485 558 39,000  Level Houston Center
12:47PM 28.7169 -88.1028 107° East 491 565 39,000  Level Houston Center
12:48PM 28.6739 -87.9447 107° East 492 566 39,000  Level Houston Center
12:50PM 28.6319 -87.7978 108° East 490 564 39,000  Level Houston Center
12:51PM 28.5819 -87.6214 108° East 490 564 39,000  Level Houston Center
12:52PM 28.5397 -87.4747 108° East 490 564 39,000  Level Houston Center
12:53PM 28.4975 -87.3292 108° East 488 562 39,000  Level Houston Center
12:54PM 28.4564 -87.1850 108° East 483 556 39,000  Level Houston Center
12:54PM 28.4317 -87.0986 108° East 484 557 39,000  Level Jacksonville Center
12:55PM 28.3883 -86.9553 109° East 489 563 39,000  Level Jacksonville Center
12:56PM 28.3450 -86.8050 108° East 489 563 39,000 -60 Level Jacksonville Center
12:57PM 28.3033 -86.6619 108° East 494 568 38,900 -600 Descending Jacksonville Center
12:58PM 28.2594 -86.5167 109° East 482 555 37,900 -1,020 Descending Jacksonville Center
12:59PM 28.2197 -86.3739 107° East 482 555 36,900 -960 Descending Jacksonville Center
01:00PM 28.1756 -86.2311 109° East 482 555 36,000 -960 Descending Jacksonville Center
01:01PM 28.1353 -86.0911 108° East 475 547 35,000 -1,020 Descending Jacksonville Center
01:02PM 28.0928 -85.9486 109° East 474 545 34,000 -1,020 Descending Jacksonville Center
01:03PM 28.0500 -85.8108 109° East 474 545 33,000 -540 Descending Jacksonville Center
01:04PM 28.0072 -85.6733 109° East 469 540 33,000  Level Jacksonville Center
01:05PM 27.9664 -85.5289 108° East 464 534 33,000  Level Jacksonville Center
01:06PM 27.9253 -85.3964 109° East 464 534 33,000  Level Jacksonville Center
01:08PM 27.8722 -85.0978 101° East 453 521 33,000  Level Miami Center
01:09PM 27.8661 -84.9494 93° East 458 527 33,000  Level Miami Center
01:10PM 27.8678 -84.8089 89° East 458 527 33,000 -360 Level Miami Center
01:11PM 27.8714 -84.6686 88° East 453 521 32,300 -1,440 Descending Miami Center
01:12PM 27.8728 -84.5256 89° East 453 521 30,200 -2,100 Descending Miami Center
01:13PM 27.8842 -84.3903 85° East 448 516 28,200 -1,980 Descending Miami Center
01:14PM 27.8847 -84.2567 90° East 430 495 26,300 -1,860 Descending Miami Center
01:15PM 27.8914 -84.1303 87° East 419 482 24,500 -1,800 Descending Miami Center
01:16PM 27.8933 -84.0061 89° East 402 463 22,700 -1,800 Descending Miami Center
01:17PM 27.8953 -83.8842 89° East 396 456 20,900 -1,800 Descending Miami Center
01:18PM 27.8989 -83.7669 88° East 386 444 19,200 -1,680 Descending Miami Center
01:19PM 27.9022 -83.6522 88° East 374 430 17,600 -1,680 Descending Miami Center
01:20PM 27.9033 -83.5397 89° East 364 419 15,900 -1,800 Descending Miami Center
01:21PM 27.9061 -83.4319 88° East 358 412 14,100 -1,800 Descending Miami Center
01:22PM 27.9089 -83.3264 88° East 347 399 12,400 -1,740 Descending Miami Center
01:23PM 27.9114 -83.2208 88° East 341 392 10,700 -1,200 Descending Miami Center
01:24PM 27.9344 -83.1283 74° East 331 381 10,000 -360 Descending Miami Center
01:25PM 27.9878 -83.0492 53° Northeast 301 346 10,000 -60 Level Miami Center
01:26PM 28.0436 -82.9650 53° Northeast 306 352 9,900 -600 Descending Miami Center
01:27PM 28.0825 -82.8803 62° Northeast 312 359 8,900 -1,260 Descending Miami Center
01:28PM 28.1167 -82.8000 64° Northeast 303 349 7,600 -1,500 Descending Tampa TRACON
01:29PM 28.1333 -82.7167 77° East 289 333 6,200 -1,620 Descending Tampa TRACON
01:30PM 28.1500 -82.6167 79° East 280 322 4,400 -1,920 Descending Tampa TRACON
01:31PM 28.1333 -82.5500 106° East 265 305 2,400 -1,320 Descending Tampa TRACON
01:32PM 28.0833 -82.5333 164° South 209 241 1,800 -720 Descending Tampa TRACON
01:33PM 28.0333 -82.5333 180° South 160 184 1,000 -840 Descending Tampa TRACON
01:35PM 27.9755 -82.5332 186° South  Level Estimated
01:42PM 27.9755 -82.5332 19° North  Level Estimated
01:43PM 27.9755 -82.5332 19° North  Level Estimated
01:44PM 27.9755 -82.5332 19° North  Level Estimated
01:45PM 27.9755 -82.5332 19° North  Level Estimated